Time;durP1;ratioP1;P1;durP2;ratioP2;P2;SDS_P1;SDS_P2;PMS_P1;PMS_P2;Temp;Humidity;BMP_temperature;BMP_pressure;BME280_temperature;BME280_humidity;BME280_pressure;Samples;Min_cycle;Max_cycle;Signal;HPM_P1;HPM_P2
2022/09/23 00:00:23;;;;;;;14.18;12.82;;;9.80;99.90;;;;;;4947532;28;20046;-91
2022/09/23 00:02:50;;;;;;;15.07;13.48;;;9.80;99.90;;;;;;4959205;28;20149;-90
2022/09/23 00:05:17;;;;;;;15.38;13.77;;;9.80;99.90;;;;;;4957567;28;20518;-91
2022/09/23 00:07:43;;;;;;;15.75;13.93;;;9.80;99.90;;;;;;4944540;28;20475;-90
2022/09/23 00:10:09;;;;;;;14.40;12.90;;;9.80;99.90;;;;;;4940005;28;20035;-91
2022/09/23 00:12:38;;;;;;;18.20;14.18;;;9.70;99.90;;;;;;4941960;28;20049;-92
2022/09/23 00:15:04;;;;;;;16.50;13.80;;;9.80;99.90;;;;;;4940724;28;20075;-91
2022/09/23 00:17:30;;;;;;;15.85;14.32;;;9.80;1.00;;;;;;4944542;28;20145;-91
2022/09/23 00:19:56;;;;;;;14.90;13.40;;;9.80;42.80;;;;;;4945664;28;20129;-91
2022/09/23 00:22:22;;;;;;;14.52;13.02;;;9.70;1.00;;;;;;4943115;28;20585;-91
2022/09/23 00:24:48;;;;;;;15.55;13.30;;;9.80;1.00;;;;;;4944767;28;20043;-92
2022/09/23 00:27:13;;;;;;;16.73;13.55;;;9.80;99.90;;;;;;4942161;28;20034;-91
2022/09/23 00:29:42;;;;;;;16.60;13.35;;;9.80;1.00;;;;;;4943146;28;20230;-92
2022/09/23 00:32:08;;;;;;;16.23;13.90;;;9.80;99.90;;;;;;4938789;28;20074;-91
2022/09/23 00:34:34;;;;;;;17.50;14.23;;;9.80;99.90;;;;;;4957831;28;20046;-91
2022/09/23 00:36:59;;;;;;;14.85;13.00;;;9.70;99.90;;;;;;4942856;28;20042;-90
2022/09/23 00:39:25;;;;;;;16.50;13.50;;;9.70;99.90;;;;;;4939594;28;20122;-90
2022/09/23 00:41:51;;;;;;;15.48;13.60;;;9.70;99.90;;;;;;4943466;28;20546;-92
2022/09/23 00:44:41;;;;;;;17.38;13.55;;;9.70;99.90;;;;;;4941285;28;20049;-91
2022/09/23 00:47:19;;;;;;;15.10;13.45;;;9.70;1.00;;;;;;4939791;28;20031;-91
2022/09/23 00:49:50;;;;;;;14.95;13.45;;;9.70;99.90;;;;;;4938915;28;20035;-90
2022/09/23 00:52:18;;;;;;;15.07;13.25;;;9.70;99.90;;;;;;4975040;28;20457;-91
2022/09/23 00:54:45;;;;;;;14.45;12.95;;;9.70;99.90;;;;;;4944436;28;20043;-91
2022/09/23 00:57:15;;;;;;;14.77;12.80;;;9.70;1.00;;;;;;4945491;28;20123;-90
2022/09/23 00:59:42;;;;;;;16.48;13.23;;;9.70;1.00;;;;;;4944122;28;20042;-91
2022/09/23 01:02:09;;;;;;;15.75;12.63;;;9.70;1.00;;;;;;4938290;28;20073;-90
2022/09/23 01:04:36;;;;;;;15.35;13.27;;;9.60;6.10;;;;;;4939689;28;20121;-91
2022/09/23 01:07:02;;;;;;;14.40;12.68;;;9.60;99.90;;;;;;4957265;28;20047;-90
2022/09/23 01:09:27;;;;;;;14.25;12.55;;;9.60;51.50;;;;;;4952051;28;20410;-91
2022/09/23 01:12:10;;;;;;;16.38;13.35;;;9.50;99.90;;;;;;4941538;28;20117;-91
2022/09/23 01:14:39;;;;;;;15.70;13.00;;;9.60;99.90;;;;;;4950750;28;20042;-92
2022/09/23 01:17:12;;;;;;;17.65;13.23;;;9.50;99.90;;;;;;4943446;28;20039;-91
2022/09/23 01:19:56;;;;;;;19.02;13.82;;;9.50;99.90;;;;;;4958645;28;20043;-92
2022/09/23 01:22:42;;;;;;;16.25;13.10;;;9.60;99.90;;;;;;4940797;28;20043;-91
2022/09/23 01:25:32;;;;;;;15.00;13.07;;;9.50;99.90;;;;;;4943913;28;20493;-91
2022/09/23 01:28:32;;;;;;;17.20;13.52;;;9.60;99.90;;;;;;4939799;28;20038;-91
2022/09/23 01:31:27;;;;;;;14.25;12.57;;;9.60;99.90;;;;;;4942594;28;20087;-90
2022/09/23 01:34:23;;;;;;;16.17;13.65;;;9.50;99.90;;;;;;4974232;28;20138;-91
2022/09/23 01:37:17;;;;;;;15.23;13.13;;;9.60;99.90;;;;;;4958550;28;20039;-90
2022/09/23 01:40:02;;;;;;;14.93;12.77;;;9.60;1.00;;;;;;4939181;28;20042;-92
2022/09/23 01:42:50;;;;;;;16.70;13.82;;;9.60;1.00;;;;;;4940408;28;20166;-92
2022/09/23 01:45:30;;;;;;;14.15;12.50;;;9.60;1.00;;;;;;4951553;28;20380;-91
2022/09/23 01:48:20;;;;;;;17.42;12.50;;;9.60;99.90;;;;;;4958852;28;20051;-92
2022/09/23 01:50:57;;;;;;;16.23;12.85;;;9.50;99.90;;;;;;4932075;28;20043;-91
2022/09/23 01:53:37;;;;;;;14.32;12.45;;;9.60;99.90;;;;;;4959138;28;20047;-92
2022/09/23 01:56:21;;;;;;;15.55;12.98;;;9.50;99.90;;;;;;4958174;28;20042;-92
2022/09/23 01:59:08;;;;;;;15.70;13.40;;;9.50;99.90;;;;;;4940884;28;20047;-92
2022/09/23 02:02:06;;;;;;;15.98;13.55;;;9.50;99.90;;;;;;4942707;28;20079;-91
2022/09/23 02:04:50;;;;;;;14.52;13.02;;;9.50;1.00;;;;;;4956320;28;20043;-92
2022/09/23 02:07:24;;;;;;;15.70;13.98;;;9.50;1.00;;;;;;4954851;28;20049;-91
2022/09/23 02:09:56;;;;;;;17.13;13.25;;;9.50;1.00;;;;;;4941621;28;20035;-91
2022/09/23 02:12:28;;;;;;;15.18;13.75;;;9.50;99.90;;;;;;4946384;28;20046;-91
2022/09/23 02:15:18;;;;;;;16.17;13.05;;;9.40;1.00;;;;;;4950330;28;20443;-91
2022/09/23 02:17:51;;;;;;;14.93;13.40;;;9.40;74.90;;;;;;4940538;28;20503;-91
2022/09/23 02:20:27;;;;;;;15.82;14.18;;;9.40;95.90;;;;;;4955439;28;20050;-92
2022/09/23 02:23:00;;;;;;;16.13;13.70;;;9.40;87.10;;;;;;4954461;28;20046;-91
2022/09/23 02:25:36;;;;;;;15.20;13.65;;;9.30;99.90;;;;;;4942413;28;20117;-92
2022/09/23 02:28:11;;;;;;;15.52;13.90;;;9.30;99.90;;;;;;4948755;28;20035;-91
2022/09/23 02:30:50;;;;;;;16.33;14.52;;;9.20;99.90;;;;;;4954007;28;20146;-92
2022/09/23 02:33:45;;;;;;;15.20;13.60;;;9.30;1.00;;;;;;4943054;28;20076;-92
2022/09/23 02:36:26;;;;;;;14.97;13.47;;;9.10;1.00;;;;;;4945374;28;20041;-91
2022/09/23 02:38:56;;;;;;;15.30;13.70;;;9.10;1.00;;;;;;4946446;28;20121;-91
2022/09/23 02:41:57;;;;;;;15.65;14.05;;;9.00;1.00;;;;;;4946427;28;20050;-91
2022/09/23 02:44:23;;;;;;;18.48;14.75;;;9.00;1.00;;;;;;4944194;28;20625;-91
2022/09/23 02:46:51;;;;;;;16.63;13.90;;;9.00;1.00;;;;;;4942882;28;20039;-91
2022/09/23 02:49:26;;;;;;;16.60;13.85;;;9.00;37.40;;;;;;4942811;28;20030;-91
2022/09/23 02:51:54;;;;;;;17.58;13.73;;;9.00;99.90;;;;;;4960061;28;20586;-91
2022/09/23 02:54:24;;;;;;;18.83;14.30;;;8.90;99.90;;;;;;4959703;28;20088;-90
2022/09/23 02:56:52;;;;;;;16.67;13.82;;;8.90;99.90;;;;;;4958836;28;20042;-91
2022/09/23 02:59:20;;;;;;;16.35;14.60;;;8.90;99.90;;;;;;4941220;28;20040;-91
2022/09/23 03:02:12;;;;;;;16.58;13.85;;;8.90;99.90;;;;;;4963286;28;20046;-91
2022/09/23 03:05:00;;;;;;;14.77;13.23;;;8.90;99.90;;;;;;4944942;28;20043;-91
2022/09/23 03:08:05;;;;;;;15.43;13.57;;;8.80;99.90;;;;;;4945420;28;20038;-92
2022/09/23 03:10:53;;;;;;;17.42;14.30;;;8.80;99.90;;;;;;4960462;28;20486;-91
2022/09/23 03:13:59;;;;;;;16.63;14.93;;;8.70;99.90;;;;;;4959687;28;20056;-92
2022/09/23 03:16:42;;;;;;;15.85;14.20;;;8.70;99.90;;;;;;4943412;28;20174;-91
2022/09/23 03:19:16;;;;;;;16.90;14.27;;;8.70;99.90;;;;;;4961517;28;20484;-90
2022/09/23 03:21:50;;;;;;;16.17;14.48;;;8.60;99.90;;;;;;4961437;28;20347;-92
2022/09/23 03:24:17;;;;;;;17.55;14.75;;;8.50;99.90;;;;;;4960858;28;20035;-92
2022/09/23 03:26:46;;;;;;;18.05;14.95;;;8.60;99.90;;;;;;4945262;28;20134;-93
2022/09/23 03:29:14;;;;;;;16.98;14.27;;;8.60;99.90;;;;;;4946563;28;20053;-92
2022/09/23 03:31:43;;;;;;;16.60;14.77;;;8.60;99.90;;;;;;4945390;28;20054;-92
2022/09/23 03:34:23;;;;;;;19.50;15.13;;;8.60;99.90;;;;;;4953048;28;20457;-92
2022/09/23 03:37:00;;;;;;;17.10;14.75;;;8.60;99.90;;;;;;4945651;28;20050;-91
2022/09/23 03:39:40;;;;;;;16.52;14.90;;;8.60;99.90;;;;;;4961401;28;20038;-91
2022/09/23 03:42:20;;;;;;;21.60;15.57;;;8.50;99.90;;;;;;4945806;28;20058;-90
2022/09/23 03:44:48;;;;;;;17.60;15.68;;;8.40;99.90;;;;;;4961911;28;20034;-91
2022/09/23 03:47:15;;;;;;;15.85;14.15;;;8.40;99.90;;;;;;4946934;28;20474;-92
2022/09/23 03:49:47;;;;;;;16.48;14.85;;;8.40;99.90;;;;;;4947351;28;20273;-92
2022/09/23 03:52:20;;;;;;;16.10;14.40;;;8.40;99.90;;;;;;4962860;28;20285;-92
2022/09/23 03:54:46;;;;;;;17.08;15.38;;;8.40;99.90;;;;;;4962792;28;20038;-92
2022/09/23 03:57:12;;;;;;;17.83;15.82;;;8.40;99.90;;;;;;4949034;28;20335;-92
2022/09/23 03:59:38;;;;;;;16.00;14.27;;;8.40;99.90;;;;;;4961077;28;20049;-91
2022/09/23 04:02:06;;;;;;;16.00;14.40;;;8.30;99.90;;;;;;4949212;28;20056;-93
2022/09/23 04:04:35;;;;;;;16.85;15.13;;;8.30;99.90;;;;;;4942989;28;20145;-90
2022/09/23 04:07:01;;;;;;;16.98;15.00;;;8.30;99.90;;;;;;4945769;28;20023;-91
2022/09/23 04:09:27;;;;;;;18.05;15.75;;;8.30;99.90;;;;;;4947449;28;20253;-91
2022/09/23 04:11:53;;;;;;;19.17;15.45;;;8.30;99.90;;;;;;4949488;28;20069;-91
2022/09/23 04:14:20;;;;;;;17.77;15.88;;;8.40;99.90;;;;;;4944957;28;20042;-91
2022/09/23 04:16:47;;;;;;;18.73;14.82;;;8.30;99.90;;;;;;4956391;28;20074;-91
2022/09/23 04:19:14;;;;;;;17.08;15.38;;;8.20;99.90;;;;;;4947251;28;20115;-92
2022/09/23 04:21:41;;;;;;;17.00;15.20;;;8.30;99.90;;;;;;4947873;28;20613;-93
2022/09/23 04:24:07;;;;;;;17.40;15.57;;;8.30;99.90;;;;;;4946125;28;20038;-91
2022/09/23 04:26:33;;;;;;;17.48;15.43;;;8.30;99.90;;;;;;4947752;28;20128;-92
2022/09/23 04:28:58;;;;;;;17.25;15.30;;;8.20;99.90;;;;;;4962030;28;20070;-91
2022/09/23 04:31:24;;;;;;;18.15;15.52;;;8.20;99.90;;;;;;4962119;28;20097;-90
2022/09/23 04:33:52;;;;;;;18.30;16.42;;;8.30;99.90;;;;;;4940182;28;20239;-91
2022/09/23 04:36:18;;;;;;;19.30;15.85;;;8.20;99.90;;;;;;4947354;28;20038;-91
2022/09/23 04:38:48;;;;;;;18.60;15.38;;;8.20;99.90;;;;;;4946095;28;20039;-90
2022/09/23 04:41:15;;;;;;;20.45;15.25;;;8.20;99.90;;;;;;4956753;28;20046;-91
2022/09/23 04:43:41;;;;;;;17.67;15.80;;;8.20;99.90;;;;;;4958885;28;20526;-91
2022/09/23 04:46:09;;;;;;;17.52;15.82;;;8.20;99.90;;;;;;4945731;28;20041;-90
2022/09/23 04:48:37;;;;;;;17.80;15.90;;;8.20;99.90;;;;;;4946738;28;20545;-92
2022/09/23 04:51:11;;;;;;;18.20;16.35;;;8.30;99.90;;;;;;4944063;28;20309;-92
2022/09/23 04:53:40;;;;;;;19.80;15.45;;;8.30;99.90;;;;;;4963260;28;20466;-92
2022/09/23 04:56:11;;;;;;;17.38;15.55;;;8.30;99.90;;;;;;4946351;28;20038;-91
2022/09/23 04:58:38;;;;;;;19.35;15.98;;;8.30;99.90;;;;;;4939417;28;20039;-90
2022/09/23 05:01:28;;;;;;;26.15;17.05;;;8.30;99.90;;;;;;4947639;28;20533;-91
2022/09/23 05:03:56;;;;;;;17.95;15.85;;;8.30;99.90;;;;;;4947960;28;20116;-91
2022/09/23 05:06:23;;;;;;;18.65;15.35;;;8.30;99.90;;;;;;4947045;28;20260;-91
2022/09/23 05:08:51;;;;;;;24.10;17.00;;;8.30;99.90;;;;;;4942840;28;20038;-91
2022/09/23 05:11:20;;;;;;;19.05;16.63;;;8.30;99.90;;;;;;4949364;28;20038;-92
2022/09/23 05:13:47;;;;;;;19.13;16.77;;;8.30;99.90;;;;;;4962319;28;20045;-91
2022/09/23 05:16:13;;;;;;;19.58;17.40;;;8.30;99.90;;;;;;4963294;28;20482;-91
2022/09/23 05:18:41;;;;;;;19.80;16.35;;;8.40;99.90;;;;;;4962164;28;20053;-91
2022/09/23 05:21:09;;;;;;;18.92;16.90;;;8.40;99.90;;;;;;4947078;28;20046;-90
2022/09/23 05:23:36;;;;;;;18.63;16.73;;;8.40;99.90;;;;;;4959387;28;20532;-91
2022/09/23 05:26:05;;;;;;;19.05;16.70;;;8.40;99.90;;;;;;4943770;28;20114;-90
2022/09/23 05:28:31;;;;;;;18.00;16.10;;;8.40;99.90;;;;;;4942980;28;20499;-90
2022/09/23 05:31:06;;;;;;;21.25;16.45;;;8.30;99.90;;;;;;4956318;28;20043;-91
2022/09/23 05:33:33;;;;;;;19.80;17.20;;;8.40;99.90;;;;;;4939569;28;20173;-91
2022/09/23 05:36:00;;;;;;;21.85;16.75;;;8.40;99.90;;;;;;4956842;28;20073;-92
2022/09/23 05:38:30;;;;;;;20.85;15.98;;;8.40;99.90;;;;;;4937584;28;20051;-91
2022/09/23 05:41:02;;;;;;;17.77;15.88;;;8.40;99.90;;;;;;4938335;28;20799;-91
2022/09/23 05:43:28;;;;;;;19.80;16.10;;;8.40;99.90;;;;;;4941701;28;20069;-92
2022/09/23 05:46:14;;;;;;;19.45;16.70;;;8.40;99.90;;;;;;4940840;28;20093;-92
2022/09/23 05:48:41;;;;;;;20.58;17.23;;;8.50;99.90;;;;;;4960003;28;20294;-91
2022/09/23 05:51:11;;;;;;;20.17;17.15;;;8.50;99.90;;;;;;4954044;28;20612;-92
2022/09/23 05:53:44;;;;;;;19.00;17.00;;;8.60;99.90;;;;;;4939670;28;20031;-92
2022/09/23 05:56:14;;;;;;;19.17;17.17;;;8.70;99.90;;;;;;4945263;28;20139;-93
2022/09/23 05:58:40;;;;;;;20.00;16.23;;;8.80;99.90;;;;;;4940809;28;20097;-94
2022/09/23 06:01:16;;;;;;;19.67;16.77;;;8.80;99.90;;;;;;4941771;28;20078;-91
2022/09/23 06:03:48;;;;;;;21.17;17.23;;;8.90;99.90;;;;;;4955204;28;20039;-91
2022/09/23 06:06:16;;;;;;;19.65;16.92;;;8.90;99.90;;;;;;4959152;28;20121;-91
2022/09/23 06:08:46;;;;;;;19.25;16.35;;;9.00;99.90;;;;;;4957222;28;20066;-91
2022/09/23 06:11:12;;;;;;;18.70;16.80;;;9.10;99.90;;;;;;4943837;28;20035;-92
2022/09/23 06:13:43;;;;;;;20.90;17.10;;;9.20;99.90;;;;;;4941943;28;20526;-91
2022/09/23 06:16:16;;;;;;;19.67;17.52;;;9.20;99.90;;;;;;4941388;28;20047;-92
2022/09/23 06:18:43;;;;;;;22.50;17.15;;;9.40;99.90;;;;;;4941073;28;20586;-91
2022/09/23 06:21:11;;;;;;;19.63;17.05;;;9.40;99.90;;;;;;4952592;28;20070;-93
2022/09/23 06:23:37;;;;;;;20.67;16.30;;;9.50;99.90;;;;;;4940957;28;20078;-91
2022/09/23 06:26:06;;;;;;;20.27;17.65;;;9.60;99.90;;;;;;4937451;28;20122;-91
2022/09/23 06:28:33;;;;;;;19.23;17.13;;;9.70;99.90;;;;;;4956863;28;20113;-92
2022/09/23 06:31:04;;;;;;;19.17;16.77;;;9.80;99.90;;;;;;4941347;28;20057;-94
2022/09/23 06:33:30;;;;;;;19.17;17.13;;;9.80;99.90;;;;;;4956321;28;20142;-92
2022/09/23 06:35:57;;;;;;;18.60;16.30;;;10.00;99.90;;;;;;4938219;28;20668;-92
2022/09/23 06:38:24;;;;;;;19.63;17.23;;;10.00;99.90;;;;;;4940150;28;20046;-92
2022/09/23 06:40:51;;;;;;;19.02;17.02;;;10.10;99.90;;;;;;4940623;28;20505;-93
2022/09/23 06:43:17;;;;;;;27.00;16.90;;;10.20;99.90;;;;;;4951977;28;20093;-92
2022/09/23 06:45:43;;;;;;;19.20;15.82;;;10.30;99.90;;;;;;4941248;28;20105;-93
2022/09/23 06:48:09;;;;;;;22.00;16.67;;;10.40;99.90;;;;;;4956502;28;20075;-93
2022/09/23 06:50:35;;;;;;;21.45;17.15;;;10.50;99.90;;;;;;4941341;28;20034;-92
2022/09/23 06:53:03;;;;;;;18.98;15.80;;;10.70;99.90;;;;;;4944133;28;20162;-92
2022/09/23 06:55:29;;;;;;;18.10;16.30;;;10.70;99.90;;;;;;4943761;28;20368;-93
2022/09/23 06:57:57;;;;;;;20.88;16.48;;;10.80;1.00;;;;;;4945706;28;20038;-93
2022/09/23 07:00:23;;;;;;;19.42;15.90;;;10.80;1.00;;;;;;4946440;28;20189;-92
2022/09/23 07:02:49;;;;;;;17.65;15.50;;;10.90;1.00;;;;;;4945915;28;20134;-92
2022/09/23 07:05:16;;;;;;;21.17;16.45;;;10.90;1.00;;;;;;4945803;28;20225;-92
2022/09/23 07:07:42;;;;;;;19.48;16.48;;;11.00;1.00;;;;;;4942126;28;20042;-92
2022/09/23 07:10:09;;;;;;;18.00;15.63;;;11.10;1.00;;;;;;4936383;28;20031;-93
2022/09/23 07:12:38;;;;;;;19.60;16.20;;;11.20;1.00;;;;;;4958260;28;20287;-92
2022/09/23 07:15:05;;;;;;;19.20;15.60;;;11.20;1.00;;;;;;4959474;28;20040;-93
2022/09/23 07:17:31;;;;;;;17.55;15.65;;;11.20;99.90;;;;;;4957560;28;20043;-92
2022/09/23 07:19:57;;;;;;;17.60;15.80;;;11.30;99.90;;;;;;4945932;28;20102;-92
2022/09/23 07:22:24;;;;;;;19.73;15.80;;;11.40;99.90;;;;;;4943335;28;20051;-93
2022/09/23 07:24:50;;;;;;;17.27;15.40;;;11.50;99.90;;;;;;4961438;28;20733;-92
2022/09/23 07:27:19;;;;;;;17.33;15.02;;;11.50;99.90;;;;;;4945189;28;20035;-92
2022/09/23 07:29:48;;;;;;;17.08;14.35;;;11.50;75.60;;;;;;4944297;28;20043;-91
2022/09/23 07:32:14;;;;;;;18.40;15.00;;;11.60;1.00;;;;;;4947355;28;20319;-92
2022/09/23 07:34:40;;;;;;;17.52;15.30;;;11.60;1.00;;;;;;4947456;28;20044;-92
2022/09/23 07:37:05;;;;;;;17.88;14.88;;;11.70;1.00;;;;;;4944419;28;20442;-92
2022/09/23 07:39:31;;;;;;;18.50;15.18;;;11.70;99.90;;;;;;4949065;28;20163;-92
2022/09/23 07:41:58;;;;;;;17.17;14.32;;;11.70;99.90;;;;;;4962295;28;20143;-92
2022/09/23 07:44:24;;;;;;;17.00;14.50;;;11.80;99.90;;;;;;4944645;28;20362;-92
2022/09/23 07:46:50;;;;;;;16.58;14.82;;;11.90;99.90;;;;;;4965615;28;20184;-92
2022/09/23 07:49:15;;;;;;;16.70;14.90;;;11.90;1.00;;;;;;4964471;28;20031;-93
2022/09/23 07:52:00;;;;;;;19.27;14.40;;;12.00;1.00;;;;;;4950096;28;20414;-93
2022/09/23 07:55:22;;;;;;;17.45;14.05;;;12.10;99.90;;;;;;4943736;28;20043;-93
2022/09/23 07:57:48;;;;;;;17.52;15.10;;;12.00;99.90;;;;;;4943781;28;20118;-93
2022/09/23 08:00:14;;;;;;;15.88;13.95;;;12.20;99.90;;;;;;4960359;28;20130;-93
2022/09/23 08:02:40;;;;;;;15.25;13.75;;;12.10;99.90;;;;;;4949967;28;20043;-92
2022/09/23 08:05:07;;;;;;;15.80;14.20;;;12.30;99.90;;;;;;4945035;28;20079;-91
2022/09/23 08:07:35;;;;;;;15.30;13.65;;;12.20;99.90;;;;;;4955587;28;20498;-92
2022/09/23 08:10:02;;;;;;;16.45;14.27;;;12.40;99.90;;;;;;4946642;28;20073;-92
2022/09/23 08:12:28;;;;;;;17.30;14.27;;;12.40;99.90;;;;;;4961869;28;20057;-92
2022/09/23 08:14:54;;;;;;;16.83;14.65;;;12.50;1.00;;;;;;4945607;28;20081;-92
2022/09/23 08:17:20;;;;;;;16.10;13.65;;;12.70;99.90;;;;;;4939496;29;20047;-93
2022/09/23 08:19:46;;;;;;;18.33;13.20;;;12.90;1.00;;;;;;4965204;28;20042;-93
2022/09/23 08:22:11;;;;;;;17.10;14.18;;;12.80;99.90;;;;;;4952277;28;20043;-93
2022/09/23 08:24:40;;;;;;;15.30;13.68;;;13.10;5.30;;;;;;4955442;28;20039;-91
2022/09/23 08:27:05;;;;;;;15.50;13.15;;;13.20;99.90;;;;;;4964828;28;20414;-92
2022/09/23 08:29:31;;;;;;;17.00;12.93;;;13.30;99.90;;;;;;4963800;28;20043;-91
2022/09/23 08:31:57;;;;;;;17.90;13.70;;;13.60;99.90;;;;;;4945601;28;20066;-94
2022/09/23 08:34:25;;;;;;;14.95;12.05;;;13.70;54.70;;;;;;4965824;28;20045;-93
2022/09/23 08:36:51;;;;;;;14.10;12.32;;;13.80;99.90;;;;;;4980203;28;20058;-93
2022/09/23 08:39:19;;;;;;;13.55;12.15;;;13.90;99.90;;;;;;4946248;28;20042;-94
2022/09/23 08:42:27;;;;;;;13.70;12.30;;;13.80;99.90;;;;;;4938100;29;20474;-92
2022/09/23 08:45:00;;;;;;;14.02;11.90;;;13.80;99.90;;;;;;4945774;28;20049;-92
2022/09/23 08:47:32;;;;;;;13.50;11.93;;;14.00;99.90;;;;;;4943068;28;20054;-93
2022/09/23 08:50:06;;;;;;;12.63;11.18;;;14.00;99.90;;;;;;4947014;28;20105;-92
2022/09/23 08:52:49;;;;;;;13.48;11.88;;;14.30;51.90;;;;;;4944509;28;20102;-93
2022/09/23 08:55:19;;;;;;;12.45;11.18;;;14.50;99.90;;;;;;4939708;28;20081;-92
2022/09/23 08:58:18;;;;;;;14.23;11.55;;;14.60;99.90;;;;;;4941629;28;20039;-93
2022/09/23 09:01:06;;;;;;;16.83;12.48;;;14.70;1.00;;;;;;4959652;28;20078;-93
2022/09/23 09:03:57;;;;;;;13.30;11.32;;;14.80;99.90;;;;;;4944950;28;20042;-93
2022/09/23 09:06:34;;;;;;;13.63;11.82;;;14.80;99.90;;;;;;4946887;28;20498;-93
2022/09/23 09:09:02;;;;;;;12.90;11.00;;;15.20;22.70;;;;;;4958611;28;20082;-93
2022/09/23 09:11:42;;;;;;;15.10;11.27;;;15.10;99.90;;;;;;4955544;28;20074;-92
2022/09/23 09:14:25;;;;;;;12.10;10.65;;;15.00;1.00;;;;;;4967397;28;20043;-94
2022/09/23 09:17:06;;;;;;;15.18;10.90;;;15.10;99.90;;;;;;4944567;28;20356;-92
2022/09/23 09:19:53;;;;;;;11.63;10.43;;;15.20;99.90;;;;;;4939783;28;20089;-92
2022/09/23 09:22:24;;;;;;;14.40;10.32;;;15.20;1.00;;;;;;4934628;28;20121;-93
2022/09/23 09:24:57;;;;;;;14.13;11.02;;;15.20;1.00;;;;;;4951554;28;20204;-93
2022/09/23 09:27:23;;;;;;;11.73;10.45;;;15.30;1.00;;;;;;4945472;28;20039;-93
2022/09/23 09:29:52;;;;;;;11.63;10.15;;;15.50;99.90;;;;;;4939206;28;20053;-93
2022/09/23 09:32:37;;;;;;;11.30;10.20;;;15.40;1.00;;;;;;4953418;28;20057;-93
2022/09/23 09:35:15;;;;;;;11.70;9.98;;;15.50;52.10;;;;;;4959080;28;20170;-92
2022/09/23 09:37:46;;;;;;;12.18;10.57;;;15.30;99.90;;;;;;4958036;28;20556;-93
2022/09/23 09:40:15;;;;;;;12.80;10.32;;;15.40;1.00;;;;;;4944235;28;20137;-93
2022/09/23 09:42:48;;;;;;;13.98;10.30;;;15.40;99.90;;;;;;4943765;28;20043;-93
2022/09/23 09:45:22;;;;;;;11.85;9.88;;;15.40;1.00;;;;;;4933238;28;20035;-92
2022/09/23 09:48:09;;;;;;;10.70;9.63;;;15.60;99.90;;;;;;4968787;28;20559;-92
2022/09/23 09:50:48;;;;;;;11.90;10.13;;;15.50;1.00;;;;;;4954228;28;20043;-92
2022/09/23 09:53:24;;;;;;;12.80;9.65;;;15.60;99.90;;;;;;4942683;28;20034;-93
2022/09/23 09:55:57;;;;;;;12.20;9.30;;;15.50;1.00;;;;;;4945759;28;20047;-91
2022/09/23 09:58:27;;;;;;;10.82;9.52;;;15.70;1.00;;;;;;4944190;28;20055;-93
2022/09/23 10:00:53;;;;;;;11.82;9.60;;;15.80;99.90;;;;;;4944278;28;20057;-92
2022/09/23 10:03:30;;;;;;;12.40;9.40;;;15.80;4.00;;;;;;4961271;28;20039;-93
2022/09/23 10:05:56;;;;;;;9.80;8.75;;;15.90;1.00;;;;;;4939898;28;20492;-93
2022/09/23 10:08:36;;;;;;;13.05;8.98;;;15.90;29.00;;;;;;4939412;28;20039;-94
2022/09/23 10:11:16;;;;;;;10.85;9.75;;;15.90;99.90;;;;;;4943453;28;20042;-92
2022/09/23 10:14:04;;;;;;;10.52;9.32;;;16.10;99.90;;;;;;4955502;28;20047;-92
2022/09/23 10:16:32;;;;;;;11.07;8.63;;;16.20;99.90;;;;;;4944258;28;20050;-93
2022/09/23 10:19:12;;;;;;;10.32;9.00;;;16.20;99.90;;;;;;4941159;28;20562;-93
2022/09/23 10:21:41;;;;;;;11.65;8.93;;;16.20;99.90;;;;;;4942676;28;20354;-92
2022/09/23 10:24:07;;;;;;;14.88;9.50;;;16.10;1.00;;;;;;4942984;28;20038;-92
2022/09/23 10:26:51;;;;;;;10.88;9.32;;;16.30;99.90;;;;;;4941507;28;20041;-92
2022/09/23 10:29:31;;;;;;;10.30;8.80;;;16.50;99.90;;;;;;4958849;28;20043;-92
2022/09/23 10:32:25;;;;;;;9.77;8.38;;;16.50;99.90;;;;;;4934656;28;20506;-94
2022/09/23 10:35:07;;;;;;;9.73;8.73;;;16.60;99.90;;;;;;4936240;28;20055;-92
2022/09/23 10:37:47;;;;;;;11.35;8.65;;;16.70;99.90;;;;;;4939755;28;20050;-92
2022/09/23 10:49:22;;;;;;;10.15;8.85;;;16.60;1.00;;;;;;4958408;28;20143;-93
2022/09/23 10:52:16;;;;;;;11.68;8.70;;;16.80;99.90;;;;;;4944447;28;20041;-92
2022/09/23 10:55:02;;;;;;;9.55;8.55;;;16.70;95.90;;;;;;4961099;28;20260;-92
2022/09/23 10:57:44;;;;;;;11.15;8.95;;;16.70;99.90;;;;;;4960212;28;20057;-91
2022/09/23 11:00:39;;;;;;;11.07;8.70;;;16.80;99.90;;;;;;4945922;28;20134;-92
2022/09/23 11:03:31;;;;;;;13.45;8.98;;;16.90;99.90;;;;;;4943868;28;20235;-93
2022/09/23 11:06:21;;;;;;;12.18;8.80;;;16.90;99.90;;;;;;4956655;28;20148;-92
2022/09/23 11:08:53;;;;;;;9.95;8.70;;;16.80;1.00;;;;;;4946002;28;20038;-94
2022/09/23 11:11:46;;;;;;;9.77;8.40;;;17.00;92.60;;;;;;4934042;29;20043;-93
2022/09/23 11:14:24;;;;;;;9.90;8.80;;;17.00;99.90;;;;;;4938657;28;20098;-92
2022/09/23 11:17:03;;;;;;;10.52;8.80;;;16.80;99.90;;;;;;4944658;28;20069;-92
2022/09/23 11:20:08;;;;;;;13.00;9.52;;;16.90;99.90;;;;;;4939525;28;20122;-93
2022/09/23 11:23:08;;;;;;;12.98;8.93;;;16.90;1.00;;;;;;4893613;28;20145;-91
2022/09/23 11:25:59;;;;;;;10.43;9.32;;;17.10;1.00;;;;;;4937366;28;20047;-93
2022/09/23 11:28:36;;;;;;;11.15;9.00;;;17.20;1.00;;;;;;4939730;28;20047;-92
2022/09/23 11:31:28;;;;;;;12.13;8.80;;;17.30;99.90;;;;;;4954687;28;20141;-93
2022/09/23 11:34:18;;;;;;;11.45;9.20;;;17.20;1.00;;;;;;4942340;28;20691;-92
2022/09/23 11:36:55;;;;;;;13.95;9.48;;;17.30;99.90;;;;;;4942758;28;20039;-93
2022/09/23 11:39:39;;;;;;;15.40;11.85;;;17.20;99.90;;;;;;4939367;28;20047;-93
2022/09/23 11:42:18;;;;;;;18.67;12.98;;;17.30;99.90;;;;;;4946174;28;20212;-92
2022/09/23 11:44:55;;;;;;;21.67;15.25;;;17.30;99.90;;;;;;4943649;28;20031;-92
2022/09/23 11:47:26;;;;;;;10.77;8.52;;;17.10;1.00;;;;;;4945212;28;20093;-92
2022/09/23 11:50:01;;;;;;;9.88;8.38;;;17.20;99.90;;;;;;4959971;28;20145;-92
2022/09/23 11:52:37;;;;;;;10.02;8.30;;;17.30;99.90;;;;;;4961955;28;20498;-93
2022/09/23 11:55:15;;;;;;;12.38;9.60;;;17.20;99.90;;;;;;4946106;28;20050;-92
2022/09/23 11:57:44;;;;;;;14.95;11.38;;;17.40;99.90;;;;;;4946357;28;20077;-93
2022/09/23 12:00:37;;;;;;;31.08;16.40;;;17.40;99.90;;;;;;4949925;28;20035;-91
2022/09/23 12:03:22;;;;;;;10.70;9.05;;;17.40;99.90;;;;;;4889413;29;20060;-91
2022/09/23 12:06:12;;;;;;;9.70;8.25;;;17.50;83.30;;;;;;4945319;28;20038;-91
2022/09/23 12:08:38;;;;;;;10.93;8.65;;;17.50;99.90;;;;;;4956538;28;20039;-93
2022/09/23 12:11:22;;;;;;;10.93;8.57;;;17.40;67.00;;;;;;4939245;28;20063;-93
2022/09/23 12:13:54;;;;;;;10.20;9.20;;;17.40;99.90;;;;;;4940238;28;20270;-92
2022/09/23 12:16:42;;;;;;;10.43;8.20;;;17.50;99.90;;;;;;4942992;28;20078;-91
2022/09/23 12:19:17;;;;;;;9.55;8.55;;;17.60;1.00;;;;;;4940338;28;20050;-92
2022/09/23 12:21:56;;;;;;;;;;;17.40;15.80;;;;;;4949109;28;20153;-91
2022/09/23 12:24:46;;;;;;;11.55;8.80;;;17.60;1.00;;;;;;4938647;28;20012;-93
2022/09/23 12:27:23;;;;;;;11.13;9.73;;;17.70;99.90;;;;;;4937750;28;20039;-93
2022/09/23 12:29:59;;;;;;;13.60;9.70;;;17.90;99.90;;;;;;4940358;28;20380;-93
2022/09/23 12:32:25;;;;;;;11.15;9.73;;;18.00;99.90;;;;;;4957475;28;20339;-93
2022/09/23 12:34:52;;;;;;;12.48;9.25;;;18.00;99.90;;;;;;4941632;28;20105;-91
2022/09/23 12:37:36;;;;;;;12.63;9.45;;;18.20;97.80;;;;;;4958339;28;20050;-92
2022/09/23 12:40:15;;;;;;;11.70;9.50;;;18.20;99.90;;;;;;4938291;28;20046;-91
2022/09/23 12:42:46;;;;;;;13.52;9.65;;;18.30;99.90;;;;;;4955380;28;20071;-93
2022/09/23 12:45:38;;;;;;;11.73;9.35;;;18.50;1.00;;;;;;4940336;28;20077;-94
2022/09/23 12:48:26;;;;;;;10.45;8.52;;;18.60;99.90;;;;;;4943717;28;20042;-92
2022/09/23 12:51:06;;;;;;;12.95;9.05;;;18.60;99.90;;;;;;4943019;28;20081;-91
2022/09/23 12:53:32;;;;;;;14.35;9.60;;;18.50;78.50;;;;;;4956388;28;20569;-92
2022/09/23 12:55:59;;;;;;;11.05;8.95;;;18.50;1.00;;;;;;4936825;28;20097;-90
2022/09/23 12:58:40;;;;;;;11.73;9.93;;;18.50;1.00;;;;;;4941880;28;20043;-91
2022/09/23 13:01:18;;;;;;;13.18;9.65;;;18.30;99.90;;;;;;4959868;28;20575;-90
2022/09/23 13:07:06;;;;;;;10.43;9.32;;;17.90;99.90;;;;;;4958715;28;20117;-90
2022/09/23 13:09:48;;;;;;;12.02;8.57;;;18.00;99.90;;;;;;4959488;28;20509;-92
2022/09/23 13:12:30;;;;;;;11.80;9.23;;;18.00;99.90;;;;;;4954261;28;20040;-92
2022/09/23 13:15:04;;;;;;;10.00;8.50;;;18.00;99.90;;;;;;4938237;28;20046;-92
2022/09/23 13:17:35;;;;;;;11.05;9.20;;;18.00;99.90;;;;;;4942624;28;20046;-90
2022/09/23 13:20:37;;;;;;;11.40;8.88;;;17.80;20.40;;;;;;4939290;28;20101;-93
2022/09/23 13:23:21;;;;;;;11.13;9.55;;;17.50;99.90;;;;;;4942110;28;20466;-91
2022/09/23 13:25:50;;;;;;;11.97;9.67;;;17.30;99.90;;;;;;4944327;28;20039;-94